Barcelona International Airport (BCN/LEBL)


Airport Information
Location: Barcelona,
Coordinates: 41.2971 / 2.07846
Field Elevation: 14ft
Longest Runway: 10,988ft
ILS Approaches: YES
Landing Fees: $6,493 per flight
Jet A Price: $0.53/lbs

Current Weather
METAR: LEBL 011130Z 22011KT CAVOK 21/10 Q1024 NOSIG
TAF: TAF LEBL 010500Z 0106/0206 34010KT 9999 FEW030 TX24/0112Z TN13/0106Z BECMG 0110/0112 22012KT BECMG 0119/0122 34006KT

No chart available
Flight Arriving
CPX502 EDDK - Cologne Bonn Airport
Germany Cologne, Germany
Flight Aircraft Departing
CPX514
EDDK - Cologne Bonn Airport
Germany Cologne, Germany



Recent Arrivals
Date Flight Type Depart
07/28/2022 CPX514 A31F Cologne Bonn Airport (EDDK)
05/18/2022 CPX980 A30F Adolfo Suárez Madrid-Barajas Intl (LEMD)
01/13/2022 CPX980 A30F Adolfo Suárez Madrid-Barajas Intl (LEMD)
Recent Departures
Date Flight Type Arrive
08/02/2022 CPX502 A31F Cologne Bonn Airport (EDDK)
05/19/2022 CPX1906 A30F Cologne Bonn Airport (EDDK)
01/13/2022 CPX1906 A30F Cologne Bonn Airport (EDDK)